Time;durP1;ratioP1;P1;durP2;ratioP2;P2;SDS_P1;SDS_P2;PMS_P1;PMS_P2;Temp;Humidity;BMP_temperature;BMP_pressure;BME280_temperature;BME280_humidity;BME280_pressure;Samples;Min_cycle;Max_cycle;Signal;HPM_P1;HPM_P2
2020/12/28 00:05:05;;;;;;;38.93;16.07;;;;;;;-0.22;72.60;96639.37;490622;1147;104892;-40
2020/12/28 00:15:10;;;;;;;42.27;17.37;;;;;;;-0.34;73.13;96632.23;490593;1147;104676;-42
2020/12/28 00:25:16;;;;;;;72.03;26.87;;;;;;;-0.38;73.55;96601.70;490794;1147;104591;-41
2020/12/28 00:35:22;;;;;;;77.10;27.05;;;;;;;-0.32;73.86;96582.69;489883;1147;104883;-40
2020/12/28 00:45:27;;;;;;;44.83;18.23;;;;;;;-0.25;73.73;96570.44;490557;1147;104935;-40
2020/12/28 00:55:32;;;;;;;68.80;26.25;;;;;;;-0.27;74.00;96549.08;490748;1147;104630;-40
2020/12/28 01:05:37;;;;;;;51.87;21.07;;;;;;;-0.24;74.26;96529.68;490562;1146;104914;-44
2020/12/28 01:15:43;;;;;;;40.87;17.20;;;;;;;-0.17;74.20;96528.64;489860;1148;104625;-39
2020/12/28 01:25:48;;;;;;;37.65;16.75;;;;;;;-0.22;74.69;96506.91;490625;1147;104524;-40
2020/12/28 01:35:53;;;;;;;36.50;16.15;;;;;;;-0.24;75.09;96498.52;490589;1147;104605;-40
2020/12/28 01:46:00;;;;;;;35.40;15.05;;;;;;;-0.33;75.32;96492.80;490640;1147;104519;-41
2020/12/28 01:56:07;;;;;;;40.45;18.75;;;;;;;-0.34;74.98;96460.85;489875;1148;104591;-40
2020/12/28 02:06:12;;;;;;;40.10;16.93;;;;;;;-0.42;75.50;96436.97;490478;1147;104441;-41
2020/12/28 02:16:18;;;;;;;53.47;22.07;;;;;;;-0.54;75.38;96417.90;490552;1147;104553;-42
2020/12/28 02:26:23;;;;;;;68.15;27.85;;;;;;;-0.55;76.13;96404.13;490446;1147;104931;-41
2020/12/28 02:46:47;;;;;;;42.67;19.57;;;;;;;-0.40;75.88;96403.80;490363;1147;104491;-46
2020/12/28 02:56:52;;;;;;;24.73;12.07;;;;;;;0.12;77.09;96389.45;490831;1109;104530;-40
2020/12/28 03:06:57;;;;;;;27.97;11.43;;;;;;;0.43;76.69;96366.86;489763;1148;104920;-40
2020/12/28 03:17:02;;;;;;;21.80;9.80;;;;;;;0.73;76.87;96356.45;489701;1148;104965;-40
2020/12/28 03:27:06;;;;;;;26.20;11.50;;;;;;;1.08;77.82;96331.27;489918;1148;104528;-42
2020/12/28 03:37:11;;;;;;;25.70;11.37;;;;;;;1.05;77.47;96297.10;489708;1147;104519;-42
2020/12/28 03:47:17;;;;;;;21.80;9.87;;;;;;;0.85;77.21;96321.63;489769;1148;104512;-40
2020/12/28 03:57:22;;;;;;;18.13;9.87;;;;;;;0.79;77.77;96280.13;489793;1148;105685;-42
2020/12/28 04:07:28;;;;;;;24.00;11.13;;;;;;;0.95;78.06;96287.27;489725;1148;104468;-42
2020/12/28 04:17:32;;;;;;;19.63;9.30;;;;;;;0.83;77.95;96278.65;489875;1148;104529;-41
2020/12/28 04:27:37;;;;;;;14.93;7.73;;;;;;;0.95;78.29;96270.84;489780;1148;104730;-40
2020/12/28 04:37:42;;;;;;;19.93;9.83;;;;;;;0.93;78.28;96261.45;489895;1148;104534;-40
2020/12/28 04:47:46;;;;;;;9.70;5.03;;;;;;;1.25;79.37;96244.70;489880;1147;104521;-44
2020/12/28 04:57:51;;;;;;;9.15;4.60;;;;;;;1.49;78.57;96241.03;489727;1148;104544;-41
2020/12/28 05:07:56;;;;;;;9.40;4.40;;;;;;;1.51;78.91;96234.57;489738;1148;104475;-40
2020/12/28 05:18:01;;;;;;;7.55;3.70;;;;;;;1.76;79.08;96239.48;489852;1148;104925;-43
2020/12/28 05:28:06;;;;;;;4.57;2.20;;;;;;;2.00;78.94;96247.20;489854;1148;104524;-40
2020/12/28 05:38:11;;;;;;;12.60;4.70;;;;;;;2.00;78.91;96231.56;489905;1148;104506;-42
2020/12/28 05:58:42;;;;;;;10.33;6.43;;;;;;;1.45;78.53;96235.50;489682;1148;104550;-41
2020/12/28 06:08:48;;;;;;;23.75;10.05;;;;;;;1.08;78.29;96239.39;489739;1147;104876;-40
2020/12/28 06:18:57;;;;;;;11.37;6.23;;;;;;;1.12;79.10;96241.30;489871;1148;104855;-40
2020/12/28 06:39:23;;;;;;;20.10;9.17;;;;;;;1.30;79.10;96232.58;489730;1148;104476;-40
2020/12/28 06:49:27;;;;;;;26.70;11.15;;;;;;;1.08;79.26;96229.77;489738;1148;104556;-39
2020/12/28 06:59:32;;;;;;;44.15;19.75;;;;;;;1.06;79.09;96226.61;489612;1147;104892;-40
2020/12/28 07:09:37;;;;;;;54.17;24.67;;;;;;;1.16;79.15;96219.00;489838;1148;104486;-40
2020/12/28 07:19:42;;;;;;;28.17;13.37;;;;;;;1.40;79.15;96209.34;489753;1148;104981;-43
2020/12/28 07:29:46;;;;;;;65.63;18.97;;;;;;;1.62;79.41;96200.89;489782;1148;105171;-41
2020/12/28 07:39:51;;;;;;;34.10;12.47;;;;;;;2.17;79.61;96174.25;490051;1148;104818;-43
2020/12/28 07:50:02;;;;;;;23.07;9.17;;;;;;;2.58;79.87;96162.61;489684;1148;104506;-39
2020/12/28 08:00:07;;;;;;;12.20;6.40;;;;;;;2.80;79.70;96139.96;489866;1145;105691;-41
2020/12/28 08:10:13;;;;;;;8.77;4.57;;;;;;;2.92;79.56;96135.44;489768;1148;104552;-40
2020/12/28 08:20:18;;;;;;;17.30;7.55;;;;;;;2.89;79.44;96142.97;489840;1148;104758;-40
2020/12/28 08:30:25;;;;;;;15.27;6.70;;;;;;;2.86;79.24;96144.23;489802;1148;104524;-40
2020/12/28 08:40:31;;;;;;;14.17;6.63;;;;;;;2.87;79.18;96131.98;489796;1148;104569;-40
2020/12/28 08:50:37;;;;;;;18.15;8.75;;;;;;;2.96;79.49;96133.12;489866;1147;104524;-40
2020/12/28 09:00:42;;;;;;;40.10;12.10;;;;;;;3.05;79.54;96116.79;489886;1148;104550;-41
2020/12/28 09:10:46;;;;;;;31.00;11.83;;;;;;;3.30;79.56;96086.77;489931;1147;104530;-41
2020/12/28 09:20:51;;;;;;;19.63;8.97;;;;;;;3.54;79.72;96069.77;489823;1146;104529;-40
2020/12/28 09:30:56;;;;;;;36.90;15.17;;;;;;;3.81;79.75;96061.15;489637;1147;104593;-42
2020/12/28 09:41:00;;;;;;;27.00;11.00;;;;;;;4.52;78.83;96057.19;489798;1148;104533;-42
2020/12/28 09:51:06;;;;;;;13.83;7.47;;;;;;;5.21;78.20;96041.23;489829;1148;104896;-42
2020/12/28 10:01:11;;;;;;;25.90;12.47;;;;;;;5.24;77.93;96037.30;489848;1148;104505;-41
2020/12/28 10:11:15;;;;;;;18.50;10.50;;;;;;;5.21;77.61;96009.80;489809;1148;104475;-42
2020/12/28 10:21:21;;;;;;;15.37;8.93;;;;;;;5.24;77.48;95992.77;489775;1148;104509;-40
2020/12/28 10:31:26;;;;;;;9.10;5.60;;;;;;;5.55;77.27;95983.09;489795;1148;104825;-42
2020/12/28 10:41:34;;;;;;;19.63;10.00;;;;;;;5.68;77.06;95943.26;489604;1148;104521;-44
2020/12/28 10:51:38;;;;;;;16.60;9.20;;;;;;;5.69;76.53;95933.55;489731;1147;104543;-41
2020/12/28 11:01:43;;;;;;;21.40;11.10;;;;;;;5.64;76.42;95923.84;489756;1148;104495;-43
2020/12/28 11:11:48;;;;;;;16.20;9.05;;;;;;;5.58;76.07;95911.80;489757;1147;104596;-41
2020/12/28 11:21:52;;;;;;;13.80;7.75;;;;;;;5.70;75.47;95908.91;489825;1148;104863;-41
2020/12/28 11:31:57;;;;;;;22.30;12.33;;;;;;;5.68;75.55;95897.88;489794;1148;104515;-44
2020/12/28 11:42:02;;;;;;;21.57;11.30;;;;;;;5.70;75.36;95893.18;489855;1148;104502;-44
2020/12/28 11:52:06;;;;;;;20.75;11.25;;;;;;;5.58;75.46;95885.58;490016;1148;104480;-41
2020/12/28 12:02:10;;;;;;;17.75;10.20;;;;;;;5.66;74.78;95884.25;489751;1147;104561;-41
2020/12/28 12:12:15;;;;;;;48.63;18.43;;;;;;;5.69;75.02;95896.85;489853;1148;104433;-40
2020/12/28 12:22:19;;;;;;;37.80;15.55;;;;;;;5.59;74.71;95909.95;489864;1148;104904;-40
2020/12/28 12:32:23;;;;;;;27.33;15.47;;;;;;;5.43;74.94;95909.17;489863;1147;105020;-40
2020/12/28 12:42:28;;;;;;;18.43;10.23;;;;;;;5.51;73.85;95912.06;489724;1148;104825;-43
2020/12/28 12:52:32;;;;;;;17.35;7.90;;;;;;;5.53;70.54;95928.31;489873;1148;104986;-39
2020/12/28 13:02:40;;;;;;;17.87;9.00;;;;;;;5.55;72.01;95928.05;489756;1148;104568;-42
2020/12/28 13:12:44;;;;;;;13.93;6.53;;;;;;;5.49;69.45;95935.14;489722;1148;104444;-41
2020/12/28 13:22:49;;;;;;;8.27;4.90;;;;;;;5.39;68.88;95948.22;489712;1148;104523;-40
2020/12/28 13:32:54;;;;;;;10.40;6.25;;;;;;;5.28;68.42;95944.04;489742;1148;104549;-40
2020/12/28 13:42:58;;;;;;;12.23;5.47;;;;;;;5.23;68.01;95952.69;489795;1148;104903;-42
2020/12/28 13:53:02;;;;;;;12.40;5.27;;;;;;;5.17;66.56;95950.30;489760;1146;104838;-40
2020/12/28 14:03:07;;;;;;;12.23;6.20;;;;;;;4.99;67.78;95971.77;489955;1148;104564;-42
2020/12/28 14:13:11;;;;;;;9.23;4.77;;;;;;;4.87;67.01;95977.22;489652;1148;104812;-41
2020/12/28 14:23:16;;;;;;;11.47;6.30;;;;;;;4.70;67.27;95966.95;490001;1148;104438;-43
2020/12/28 14:33:21;;;;;;;10.03;5.73;;;;;;;4.67;67.35;95980.55;489742;1148;104524;-40
2020/12/28 14:43:26;;;;;;;15.40;7.50;;;;;;;4.59;67.91;95992.31;489848;1147;104828;-41
2020/12/28 14:53:32;;;;;;;19.67;8.63;;;;;;;4.55;68.68;96004.34;489841;1146;104510;-42
2020/12/28 15:03:37;;;;;;;17.60;8.55;;;;;;;4.57;67.74;96017.17;489841;1148;104503;-44
2020/12/28 15:13:42;;;;;;;10.67;5.97;;;;;;;4.65;68.44;96019.28;489791;1148;105143;-40
2020/12/28 15:23:47;;;;;;;21.35;8.65;;;;;;;4.58;67.94;96018.74;489747;1148;104514;-44
2020/12/28 15:33:51;;;;;;;22.50;9.03;;;;;;;4.59;68.58;96034.19;489867;1148;104474;-40
2020/12/28 15:43:56;;;;;;;20.53;9.70;;;;;;;4.58;69.10;96039.68;489800;1148;104918;-41
2020/12/28 15:54:01;;;;;;;14.00;7.07;;;;;;;4.74;69.03;96070.13;489907;1145;104509;-39
2020/12/28 16:04:05;;;;;;;27.27;10.83;;;;;;;4.70;69.03;96082.13;489923;1148;104516;-42
2020/12/28 16:14:10;;;;;;;41.70;16.40;;;;;;;4.59;68.53;96073.44;489735;1148;104530;-41
2020/12/28 16:24:14;;;;;;;28.07;10.23;;;;;;;4.58;68.51;96087.57;490019;1148;104893;-41
2020/12/28 16:34:19;;;;;;;18.30;7.67;;;;;;;4.73;68.82;96102.59;489760;1148;104938;-41
2020/12/28 16:44:24;;;;;;;25.03;11.23;;;;;;;4.71;68.42;96098.62;489758;1147;104921;-41
2020/12/28 16:54:30;;;;;;;52.13;21.80;;;;;;;4.64;68.84;96088.38;489784;1146;104474;-43
2020/12/28 17:04:35;;;;;;;34.50;15.50;;;;;;;4.57;68.85;96072.91;489787;1148;104846;-41
2020/12/28 17:14:39;;;;;;;27.20;13.13;;;;;;;4.58;68.80;96068.47;489791;1147;104828;-40
2020/12/28 17:24:44;;;;;;;24.73;10.83;;;;;;;4.72;68.01;96063.55;489961;1148;104524;-40
2020/12/28 17:34:49;;;;;;;29.37;13.10;;;;;;;4.68;67.98;96065.09;489872;1148;104503;-41
2020/12/28 17:44:54;;;;;;;33.50;14.95;;;;;;;4.47;68.07;96058.97;489946;1148;104560;-41
2020/12/28 17:55:02;;;;;;;28.75;13.50;;;;;;;4.25;68.30;96041.57;489793;1148;104536;-41
2020/12/28 18:05:07;;;;;;;26.57;13.40;;;;;;;4.25;68.80;96033.72;489761;1147;104551;-42
2020/12/28 18:15:11;;;;;;;29.90;13.80;;;;;;;4.20;69.04;96020.63;489683;1148;104823;-42
2020/12/28 18:25:17;;;;;;;26.70;12.35;;;;;;;4.18;68.61;96025.32;489767;1148;104524;-42
2020/12/28 18:35:22;;;;;;;29.30;12.60;;;;;;;4.20;68.67;96025.06;489812;1148;104521;-40
2020/12/28 18:45:26;;;;;;;28.83;12.63;;;;;;;4.26;68.37;96029.31;489766;1148;104604;-41
2020/12/28 18:55:31;;;;;;;21.30;10.77;;;;;;;4.36;68.07;96021.51;489862;1147;104830;-43
2020/12/28 19:05:35;;;;;;;33.23;14.60;;;;;;;4.46;68.21;96008.47;489735;1148;104991;-41
2020/12/28 19:15:40;;;;;;;25.60;11.97;;;;;;;4.56;67.85;95981.58;489626;1146;104524;-41
2020/12/28 19:25:45;;;;;;;27.40;13.23;;;;;;;4.67;67.62;95971.92;489942;1148;104521;-40
2020/12/28 19:35:49;;;;;;;31.20;13.87;;;;;;;4.71;68.42;95970.35;489780;1148;104623;-41
2020/12/28 19:45:54;;;;;;;19.80;9.30;;;;;;;5.04;67.31;95953.44;489807;1148;104543;-40
2020/12/28 19:56:04;;;;;;;22.15;10.00;;;;;;;5.06;67.76;95943.48;489752;1145;104437;-43
2020/12/28 20:06:07;;;;;;;;;;;;;;;4.97;67.21;95935.37;489835;1148;104524;-42
2020/12/28 20:16:11;;;;;;;52.60;18.77;;;;;;;4.69;67.68;95931.35;489940;1146;104514;-43
2020/12/28 20:26:17;;;;;;;40.63;16.70;;;;;;;4.48;67.99;95919.25;489766;1148;105020;-42
2020/12/28 20:46:43;;;;;;;48.20;18.30;;;;;;;4.38;68.05;95898.30;489817;1148;104543;-43
2020/12/28 20:56:47;;;;;;;57.40;21.13;;;;;;;4.32;68.03;95889.65;489699;1148;104527;-41
2020/12/28 21:06:52;;;;;;;35.30;14.80;;;;;;;4.39;68.25;95894.63;489643;1147;104466;-42
2020/12/28 21:16:57;;;;;;;49.10;15.70;;;;;;;4.38;68.61;95887.83;489778;1148;105292;-42
2020/12/28 21:27:01;;;;;;;44.40;16.73;;;;;;;4.33;68.09;95869.51;489926;1148;104539;-42
2020/12/28 21:37:06;;;;;;;51.97;17.43;;;;;;;4.34;68.73;95873.70;489846;1148;104888;-41
2020/12/28 21:47:10;;;;;;;42.00;15.27;;;;;;;4.36;68.65;95848.84;489830;1148;104509;-40
2020/12/28 21:57:16;;;;;;;20.70;9.97;;;;;;;4.52;68.75;95853.08;489768;1147;104655;-41
2020/12/28 22:07:20;;;;;;;20.60;8.25;;;;;;;4.67;69.34;95844.45;489713;1145;104669;-41
2020/12/28 22:17:25;;;;;;;39.67;14.23;;;;;;;4.77;69.56;95822.76;489670;1146;104829;-41
2020/12/28 22:27:28;;;;;;;43.17;15.97;;;;;;;4.69;69.65;95824.04;489745;1148;104524;-41
2020/12/28 22:37:33;;;;;;;44.30;18.00;;;;;;;4.61;69.82;95825.34;490004;1147;104444;-44
2020/12/28 22:47:38;;;;;;;23.13;10.87;;;;;;;4.71;70.11;95814.09;489725;1146;104519;-42
2020/12/28 22:57:42;;;;;;;33.70;13.83;;;;;;;4.88;70.62;95798.92;489990;1148;104815;-43
2020/12/28 23:07:47;;;;;;;25.50;11.30;;;;;;;4.90;70.71;95796.83;490013;1148;104518;-42
2020/12/28 23:17:52;;;;;;;17.40;7.97;;;;;;;5.07;71.18;95790.54;489862;1148;104530;-43
2020/12/28 23:27:57;;;;;;;14.95;6.60;;;;;;;5.31;70.67;95782.91;489868;1148;104843;-42
2020/12/28 23:48:21;;;;;;;14.43;7.58;;;;;;;5.31;72.06;95754.87;489761;1148;104487;-41
2020/12/28 23:58:26;;;;;;;16.13;8.27;;;;;;;5.35;71.28;95755.13;489846;1147;104868;-41
